Time;durP1;ratioP1;P1;durP2;ratioP2;P2;SDS_P1;SDS_P2;PMS_P1;PMS_P2;Temp;Humidity;BMP_temperature;BMP_pressure;BME280_temperature;BME280_humidity;BME280_pressure;Samples;Min_cycle;Max_cycle;Signal;HPM_P1;HPM_P2
2023/09/29 00:00:33;;;;;;;9.57;3.63;;;17.30;99.90;;;;;;6270189;22;20821;-66
2023/09/29 00:02:59;;;;;;;11.18;3.22;;;17.20;99.90;;;;;;6270204;22;20414;-66
2023/09/29 00:05:27;;;;;;;8.05;3.25;;;17.30;99.90;;;;;;6270103;22;20357;-66
2023/09/29 00:07:52;;;;;;;9.00;3.70;;;17.40;99.90;;;;;;6270097;22;20345;-66
2023/09/29 00:10:20;;;;;;;7.75;3.15;;;17.40;59.20;;;;;;6269798;22;20441;-66
2023/09/29 00:12:48;;;;;;;8.80;3.03;;;17.30;48.20;;;;;;6270912;22;20422;-66
2023/09/29 00:15:15;;;;;;;9.07;3.00;;;17.20;99.90;;;;;;6270288;22;20831;-66
2023/09/29 00:17:41;;;;;;;10.77;3.17;;;17.10;99.90;;;;;;6269952;22;20360;-66
2023/09/29 00:20:18;;;;;;;7.70;2.40;;;17.00;1.00;;;;;;6270359;22;20372;-65
2023/09/29 00:22:44;;;;;;;6.97;2.40;;;17.00;1.00;;;;;;6270547;22;20392;-66
2023/09/29 00:25:09;;;;;;;6.97;2.50;;;16.90;1.00;;;;;;6270481;22;20425;-66
2023/09/29 00:27:35;;;;;;;6.50;2.43;;;16.90;3.30;;;;;;6269946;22;20352;-65
2023/09/29 00:30:01;;;;;;;7.53;2.57;;;16.80;99.90;;;;;;6270520;22;20360;-66
2023/09/29 00:32:26;;;;;;;9.60;3.03;;;16.80;99.90;;;;;;6271321;22;20387;-66
2023/09/29 00:34:52;;;;;;;7.83;3.30;;;16.70;99.90;;;;;;6271387;22;20368;-66
2023/09/29 00:37:17;;;;;;;7.67;3.33;;;16.60;99.90;;;;;;6271970;22;20367;-66
2023/09/29 00:39:43;;;;;;;9.73;3.63;;;16.70;99.90;;;;;;6272504;22;20368;-65
2023/09/29 00:42:09;;;;;;;10.15;3.90;;;16.70;99.90;;;;;;6272759;22;20388;-65
2023/09/29 00:44:34;;;;;;;10.52;4.32;;;16.60;99.90;;;;;;6273419;22;20457;-66
2023/09/29 00:47:01;;;;;;;7.90;3.30;;;16.70;99.90;;;;;;6244795;22;20361;-65
2023/09/29 00:49:29;;;;;;;9.15;3.45;;;16.70;99.90;;;;;;6272019;22;20739;-66
2023/09/29 00:52:00;;;;;;;8.85;3.50;;;16.80;1.00;;;;;;6271664;22;20715;-65
2023/09/29 00:54:28;;;;;;;8.02;3.45;;;16.90;1.00;;;;;;6271685;22;20363;-66
2023/09/29 00:56:55;;;;;;;7.70;2.88;;;16.90;1.00;;;;;;6271623;22;20418;-66
2023/09/29 00:59:21;;;;;;;8.30;3.58;;;17.00;1.00;;;;;;6270663;22;20348;-66
2023/09/29 01:01:48;;;;;;;8.90;3.07;;;16.90;1.00;;;;;;6270075;22;22220;-66
2023/09/29 01:04:15;;;;;;;16.63;3.90;;;17.00;1.00;;;;;;6271794;22;20396;-66
2023/09/29 01:06:40;;;;;;;8.00;3.60;;;17.00;1.00;;;;;;6271411;22;20356;-66
2023/09/29 01:09:06;;;;;;;8.93;3.13;;;17.10;1.00;;;;;;6271583;22;20427;-67
2023/09/29 01:11:43;;;;;;;7.55;3.17;;;17.20;99.90;;;;;;6271235;22;20367;-66
2023/09/29 01:14:11;;;;;;;8.50;3.30;;;17.20;99.90;;;;;;6271342;22;20458;-66
2023/09/29 01:16:38;;;;;;;9.35;3.10;;;17.10;99.90;;;;;;6271995;22;20371;-65
2023/09/29 01:19:11;;;;;;;8.93;3.50;;;17.00;99.90;;;;;;6271190;22;20725;-67
2023/09/29 01:21:36;;;;;;;7.72;2.90;;;17.10;99.90;;;;;;6271227;22;20372;-67
2023/09/29 01:24:02;;;;;;;9.15;2.70;;;17.00;1.00;;;;;;6271350;22;20390;-66
2023/09/29 01:26:28;;;;;;;7.85;2.80;;;17.10;99.90;;;;;;6271215;22;20401;-65
2023/09/29 01:28:53;;;;;;;8.30;3.50;;;17.10;1.00;;;;;;6243475;22;20357;-66
2023/09/29 01:31:19;;;;;;;8.88;3.33;;;17.00;1.00;;;;;;6271501;22;20359;-66
2023/09/29 01:33:44;;;;;;;8.20;2.65;;;17.00;99.90;;;;;;6272004;22;20372;-65
2023/09/29 01:36:10;;;;;;;8.02;3.15;;;16.90;1.00;;;;;;6271417;22;20369;-65
2023/09/29 01:38:36;;;;;;;7.47;2.40;;;16.80;34.00;;;;;;6271803;22;20414;-65
2023/09/29 01:41:01;;;;;;;7.00;2.57;;;16.70;99.90;;;;;;6271569;22;20413;-66
2023/09/29 01:43:27;;;;;;;10.70;2.90;;;16.70;99.90;;;;;;6270821;22;20418;-65
2023/09/29 01:46:46;;;;;;;8.38;3.08;;;16.70;1.00;;;;;;6271505;22;20367;-65
2023/09/29 01:49:12;;;;;;;10.98;2.78;;;16.60;1.00;;;;;;6271697;22;20425;-66
2023/09/29 01:51:37;;;;;;;7.73;2.83;;;16.60;1.00;;;;;;6271333;22;20801;-66
2023/09/29 01:54:03;;;;;;;9.20;3.03;;;16.50;99.90;;;;;;6271533;22;20376;-66
2023/09/29 01:56:31;;;;;;;7.07;2.93;;;16.40;99.90;;;;;;6271923;22;20363;-66
2023/09/29 01:58:57;;;;;;;6.80;2.80;;;16.30;99.90;;;;;;6244693;22;20436;-66
2023/09/29 02:01:23;;;;;;;6.20;2.45;;;16.30;1.00;;;;;;6271258;22;20382;-66
2023/09/29 02:03:49;;;;;;;7.57;2.97;;;16.20;1.00;;;;;;6271425;22;20446;-66
2023/09/29 02:06:15;;;;;;;7.35;2.60;;;16.20;1.00;;;;;;6271810;22;20359;-66
2023/09/29 02:08:42;;;;;;;7.80;2.67;;;16.10;1.00;;;;;;6272496;22;20361;-66
2023/09/29 02:11:08;;;;;;;6.80;2.70;;;16.00;1.00;;;;;;6271918;22;20361;-66
2023/09/29 02:13:35;;;;;;;7.85;2.80;;;16.00;1.00;;;;;;6271610;22;20792;-65
2023/09/29 02:16:03;;;;;;;8.32;2.85;;;16.00;21.50;;;;;;6270827;22;20388;-66
2023/09/29 02:18:29;;;;;;;9.38;3.20;;;15.90;99.90;;;;;;6271064;22;20364;-65
2023/09/29 02:20:55;;;;;;;8.80;2.60;;;15.70;99.90;;;;;;6271341;22;20759;-65
2023/09/29 02:23:22;;;;;;;7.37;2.80;;;15.80;99.90;;;;;;6271027;22;20438;-65
2023/09/29 02:25:48;;;;;;;7.00;2.80;;;15.70;99.90;;;;;;6243957;22;20379;-65
2023/09/29 02:28:14;;;;;;;7.30;2.70;;;15.70;99.90;;;;;;6244912;22;20372;-65
2023/09/29 02:30:40;;;;;;;8.70;2.80;;;15.70;99.90;;;;;;6271289;22;20517;-65
2023/09/29 02:33:06;;;;;;;9.05;2.90;;;15.70;99.90;;;;;;6269777;22;20356;-65
2023/09/29 02:35:32;;;;;;;7.28;2.78;;;15.70;99.90;;;;;;6270475;22;20363;-65
2023/09/29 02:37:58;;;;;;;7.97;2.50;;;15.70;99.90;;;;;;6270339;22;20697;-65
2023/09/29 02:40:23;;;;;;;7.00;2.60;;;15.70;99.90;;;;;;6270419;22;20431;-65
2023/09/29 02:42:49;;;;;;;8.93;2.53;;;15.70;99.90;;;;;;6270071;22;20380;-65
2023/09/29 02:45:15;;;;;;;9.15;2.70;;;15.80;99.90;;;;;;6270505;22;20390;-65
2023/09/29 02:47:42;;;;;;;9.53;3.60;;;15.70;99.90;;;;;;6270199;22;20368;-65
2023/09/29 02:50:09;;;;;;;9.50;3.70;;;15.70;99.90;;;;;;6270271;22;20356;-65
2023/09/29 02:52:36;;;;;;;8.25;2.75;;;15.80;99.90;;;;;;6269407;22;20356;-65
2023/09/29 02:55:04;;;;;;;8.00;2.38;;;15.90;99.90;;;;;;6270372;22;20365;-65
2023/09/29 02:57:30;;;;;;;7.30;2.70;;;15.90;99.90;;;;;;6270110;22;20851;-65
2023/09/29 02:59:57;;;;;;;7.18;2.63;;;15.80;99.90;;;;;;6269772;22;20361;-66
2023/09/29 03:02:23;;;;;;;7.20;2.88;;;15.90;94.90;;;;;;6269999;22;20753;-66
2023/09/29 03:04:49;;;;;;;7.78;3.00;;;15.90;48.90;;;;;;6269754;22;20800;-66
2023/09/29 03:07:15;;;;;;;9.07;2.92;;;16.00;1.00;;;;;;6271011;22;20792;-66
2023/09/29 03:09:41;;;;;;;8.00;2.37;;;16.10;1.00;;;;;;6242725;22;20384;-66
2023/09/29 03:12:07;;;;;;;7.45;2.88;;;16.20;1.00;;;;;;6269815;22;20364;-66
2023/09/29 03:14:32;;;;;;;9.70;3.50;;;16.20;1.00;;;;;;6269172;22;20954;-66
2023/09/29 03:16:58;;;;;;;7.17;2.83;;;16.30;99.90;;;;;;6269644;22;20458;-66
2023/09/29 03:19:24;;;;;;;10.75;2.95;;;16.20;99.90;;;;;;6269976;22;20451;-66
2023/09/29 03:21:50;;;;;;;7.30;2.92;;;16.30;99.90;;;;;;6269914;22;20773;-66
2023/09/29 03:24:15;;;;;;;7.57;2.95;;;16.20;99.90;;;;;;6270377;22;20363;-65
2023/09/29 03:26:41;;;;;;;7.00;2.60;;;16.10;99.90;;;;;;6270743;22;20364;-65
2023/09/29 03:29:07;;;;;;;8.10;2.77;;;16.10;99.90;;;;;;6269959;22;20440;-66
2023/09/29 03:31:33;;;;;;;8.95;2.50;;;16.00;1.00;;;;;;6270202;22;20356;-66
2023/09/29 03:33:58;;;;;;;7.55;2.10;;;16.00;1.00;;;;;;6243101;22;20364;-66
2023/09/29 03:36:24;;;;;;;6.93;2.40;;;15.90;1.00;;;;;;6270111;22;20445;-66
2023/09/29 03:38:49;;;;;;;8.17;2.90;;;15.80;1.00;;;;;;6269974;22;20390;-66
2023/09/29 03:41:15;;;;;;;7.25;2.72;;;15.70;75.30;;;;;;6270268;22;20349;-66
2023/09/29 03:43:41;;;;;;;7.25;2.75;;;15.70;99.90;;;;;;6269516;22;20376;-65
2023/09/29 03:46:17;;;;;;;8.93;3.00;;;15.70;99.90;;;;;;6269601;22;20363;-65
2023/09/29 03:48:46;;;;;;;8.32;2.97;;;15.70;99.90;;;;;;6270376;22;20693;-66
2023/09/29 03:51:11;;;;;;;7.53;2.70;;;15.80;99.90;;;;;;6270138;22;20368;-66
2023/09/29 03:53:38;;;;;;;6.97;2.40;;;15.70;99.90;;;;;;6269959;22;20842;-65
2023/09/29 03:56:03;;;;;;;6.88;2.50;;;15.80;99.90;;;;;;6268502;22;20701;-66
2023/09/29 03:58:29;;;;;;;6.70;2.40;;;15.80;73.90;;;;;;6268850;22;20430;-66
2023/09/29 04:00:54;;;;;;;6.53;2.50;;;15.90;1.00;;;;;;6269136;22;20372;-66
2023/09/29 04:03:20;;;;;;;8.87;2.57;;;16.00;1.00;;;;;;6269201;22;20873;-66
2023/09/29 04:05:45;;;;;;;7.67;2.30;;;16.00;1.00;;;;;;6271259;22;20360;-65
2023/09/29 04:08:11;;;;;;;10.48;2.40;;;16.00;1.00;;;;;;6270947;22;20352;-65
2023/09/29 04:10:37;;;;;;;8.32;2.22;;;16.00;1.00;;;;;;6270748;22;20808;-66
2023/09/29 04:13:02;;;;;;;8.00;2.60;;;15.90;1.00;;;;;;6270936;22;20501;-65
2023/09/29 04:15:28;;;;;;;7.55;2.83;;;15.90;99.90;;;;;;6271031;22;20360;-65
2023/09/29 04:17:54;;;;;;;9.73;2.70;;;15.90;99.90;;;;;;6270975;22;20804;-66
2023/09/29 04:20:19;;;;;;;6.40;2.20;;;16.00;78.40;;;;;;6270811;22;21181;-66
2023/09/29 04:22:46;;;;;;;6.63;2.47;;;16.10;14.60;;;;;;6271421;22;20388;-66
2023/09/29 04:25:11;;;;;;;10.02;2.97;;;16.30;1.00;;;;;;6271202;22;20368;-66
2023/09/29 04:27:38;;;;;;;11.57;2.80;;;16.30;1.00;;;;;;6270432;22;20461;-65
2023/09/29 04:30:06;;;;;;;7.10;2.30;;;16.40;1.00;;;;;;6270038;22;20494;-65
2023/09/29 04:32:32;;;;;;;7.07;2.65;;;16.50;99.90;;;;;;6270887;22;20348;-65
2023/09/29 04:34:57;;;;;;;6.50;2.03;;;16.60;99.90;;;;;;6270260;22;20357;-66
2023/09/29 04:37:23;;;;;;;7.22;2.60;;;16.60;44.20;;;;;;6271119;22;20360;-66
2023/09/29 04:39:48;;;;;;;8.27;2.60;;;16.70;1.00;;;;;;6270711;22;20378;-66
2023/09/29 04:42:14;;;;;;;11.32;2.67;;;16.80;1.00;;;;;;6271191;22;20379;-67
2023/09/29 04:44:40;;;;;;;8.47;3.40;;;16.90;1.00;;;;;;6270431;22;20697;-66
2023/09/29 04:47:07;;;;;;;6.55;2.00;;;17.00;99.90;;;;;;6270657;22;20364;-67
2023/09/29 04:49:32;;;;;;;7.18;2.47;;;17.00;1.00;;;;;;6270384;22;20884;-66
2023/09/29 04:51:58;;;;;;;11.60;2.23;;;16.90;99.90;;;;;;6270556;22;20364;-67
2023/09/29 04:54:24;;;;;;;8.50;3.10;;;17.00;99.90;;;;;;6270421;22;20757;-67
2023/09/29 04:56:49;;;;;;;9.18;3.10;;;17.10;1.00;;;;;;6270390;22;20685;-67
2023/09/29 04:59:15;;;;;;;8.13;2.40;;;17.10;99.90;;;;;;6271110;22;20450;-64
2023/09/29 05:01:40;;;;;;;7.40;3.03;;;17.20;99.90;;;;;;6270599;22;20352;-66
2023/09/29 05:04:06;;;;;;;7.43;2.60;;;17.20;1.00;;;;;;6270027;22;20379;-66
2023/09/29 05:06:31;;;;;;;6.77;2.80;;;17.30;1.00;;;;;;6270617;22;20656;-65
2023/09/29 05:08:57;;;;;;;8.40;2.60;;;17.30;4.80;;;;;;6272213;22;20352;-66
2023/09/29 05:11:24;;;;;;;7.10;2.38;;;17.20;1.00;;;;;;6270790;22;20360;-66
2023/09/29 05:13:51;;;;;;;13.60;3.08;;;17.30;99.90;;;;;;6270663;22;20470;-66
2023/09/29 05:16:17;;;;;;;7.80;2.53;;;17.40;1.00;;;;;;6272321;22;20372;-66
2023/09/29 05:18:43;;;;;;;8.65;2.67;;;17.50;99.90;;;;;;6273504;22;20449;-65
2023/09/29 05:21:10;;;;;;;7.60;2.60;;;17.50;1.00;;;;;;6271359;22;20510;-66
2023/09/29 05:23:37;;;;;;;7.68;2.60;;;17.40;66.10;;;;;;6270711;22;20391;-66
2023/09/29 05:26:05;;;;;;;7.70;2.80;;;17.40;1.00;;;;;;6270894;22;20741;-66
2023/09/29 05:28:31;;;;;;;11.05;3.05;;;17.40;1.00;;;;;;6270850;22;20708;-66
2023/09/29 05:30:57;;;;;;;9.18;2.70;;;17.40;1.00;;;;;;6270898;22;20392;-67
2023/09/29 05:33:23;;;;;;;9.52;3.00;;;17.50;1.00;;;;;;6269971;22;20406;-66
2023/09/29 05:35:49;;;;;;;10.07;3.70;;;17.70;99.90;;;;;;6270345;22;20356;-67
2023/09/29 05:38:15;;;;;;;8.63;3.27;;;17.70;71.50;;;;;;6271448;22;20366;-67
2023/09/29 05:40:41;;;;;;;8.93;2.50;;;17.80;1.00;;;;;;6270854;22;20831;-67
2023/09/29 05:43:10;;;;;;;10.10;3.17;;;17.70;1.00;;;;;;6270003;22;20797;-67
2023/09/29 05:45:37;;;;;;;6.75;2.47;;;17.80;99.90;;;;;;6270603;22;20461;-68
2023/09/29 05:48:03;;;;;;;7.93;2.75;;;18.00;1.00;;;;;;6270165;22;20367;-67
2023/09/29 05:50:29;;;;;;;7.53;2.60;;;18.30;99.90;;;;;;6269451;22;20360;-67
2023/09/29 05:52:56;;;;;;;8.40;2.43;;;18.90;99.90;;;;;;6269768;22;20387;-67
2023/09/29 05:55:22;;;;;;;6.90;2.53;;;19.40;1.00;;;;;;6269841;22;20391;-67
2023/09/29 05:57:47;;;;;;;8.00;2.97;;;19.60;99.90;;;;;;6270109;22;20434;-68
2023/09/29 06:00:13;;;;;;;8.90;3.30;;;19.40;99.90;;;;;;6270999;22;20642;-67
2023/09/29 06:02:40;;;;;;;8.05;2.40;;;19.30;99.90;;;;;;6269950;22;20376;-67
2023/09/29 06:05:06;;;;;;;8.57;2.83;;;19.50;99.90;;;;;;6269446;22;20344;-67
2023/09/29 06:07:32;;;;;;;7.55;2.88;;;19.40;99.90;;;;;;6270490;22;20728;-67
2023/09/29 06:09:58;;;;;;;9.23;3.07;;;19.30;99.90;;;;;;6269913;22;20368;-67
2023/09/29 06:12:23;;;;;;;9.13;2.80;;;19.20;99.90;;;;;;6270823;22;20422;-67
2023/09/29 06:14:49;;;;;;;10.13;2.80;;;19.10;99.90;;;;;;6270865;22;20368;-67
2023/09/29 06:17:14;;;;;;;7.23;2.40;;;19.10;99.90;;;;;;6270878;22;20417;-67
2023/09/29 06:19:41;;;;;;;9.63;3.10;;;19.00;99.90;;;;;;6270621;22;20434;-67
2023/09/29 06:22:07;;;;;;;7.45;2.80;;;19.00;99.90;;;;;;6270723;22;20360;-67
2023/09/29 06:24:32;;;;;;;7.57;3.03;;;19.20;99.90;;;;;;6269982;22;20356;-67
2023/09/29 06:26:58;;;;;;;10.60;2.90;;;19.50;99.90;;;;;;6271124;22;20367;-67
2023/09/29 06:29:23;;;;;;;8.10;2.70;;;19.60;99.90;;;;;;6271880;22;20360;-67
2023/09/29 06:31:49;;;;;;;10.63;2.83;;;19.80;99.90;;;;;;6271155;22;20356;-67
2023/09/29 06:34:15;;;;;;;9.40;2.93;;;19.80;99.90;;;;;;6270864;22;20855;-67
2023/09/29 06:36:40;;;;;;;7.47;2.80;;;19.60;99.90;;;;;;6271527;22;20439;-67
2023/09/29 06:39:06;;;;;;;9.17;3.20;;;19.70;99.90;;;;;;6270839;22;20730;-67
2023/09/29 06:41:31;;;;;;;8.37;2.50;;;19.60;99.90;;;;;;6270665;22;20352;-67
2023/09/29 06:43:57;;;;;;;8.20;3.40;;;19.50;99.90;;;;;;6271172;22;20450;-67
2023/09/29 06:46:23;;;;;;;14.33;3.00;;;19.60;99.90;;;;;;6270859;22;20367;-67
2023/09/29 06:48:48;;;;;;;6.93;2.63;;;19.60;99.90;;;;;;6270566;22;20361;-67
2023/09/29 06:51:14;;;;;;;7.83;2.70;;;19.60;99.90;;;;;;6271532;22;20375;-67
2023/09/29 06:53:39;;;;;;;12.77;2.80;;;19.70;99.90;;;;;;6270560;22;20658;-67
2023/09/29 06:56:06;;;;;;;8.80;2.63;;;19.60;99.90;;;;;;6270665;22;20812;-67
2023/09/29 06:58:32;;;;;;;11.80;3.47;;;19.60;99.90;;;;;;6270665;22;20364;-67
2023/09/29 07:00:58;;;;;;;8.57;2.80;;;19.70;99.90;;;;;;6270852;22;20431;-67
2023/09/29 07:03:26;;;;;;;13.48;3.08;;;19.70;99.90;;;;;;6270141;22;20383;-67
2023/09/29 07:05:51;;;;;;;10.95;2.95;;;19.60;99.90;;;;;;6270543;22;20665;-67
2023/09/29 07:08:17;;;;;;;8.97;3.30;;;19.70;99.90;;;;;;6270568;22;20353;-67
2023/09/29 07:10:43;;;;;;;7.33;2.90;;;19.90;99.90;;;;;;6271164;22;20360;-67
2023/09/29 07:13:09;;;;;;;10.20;2.80;;;20.20;99.90;;;;;;6270484;22;20360;-67
2023/09/29 07:15:34;;;;;;;6.97;2.73;;;20.30;85.20;;;;;;6270495;22;20654;-67
2023/09/29 07:18:00;;;;;;;10.40;3.20;;;20.40;23.00;;;;;;6270710;22;20392;-67
2023/09/29 07:20:25;;;;;;;7.63;2.73;;;20.60;1.00;;;;;;6270371;22;20361;-67
2023/09/29 07:22:51;;;;;;;10.83;3.20;;;20.80;1.00;;;;;;6270628;22;20864;-67
2023/09/29 07:25:18;;;;;;;9.90;2.60;;;21.00;1.00;;;;;;6270558;22;20356;-67
2023/09/29 07:27:44;;;;;;;9.70;3.08;;;21.10;1.00;;;;;;6271413;22;20425;-67
2023/09/29 07:30:10;;;;;;;8.40;2.60;;;21.40;1.00;;;;;;6270212;22;20375;-67
2023/09/29 07:32:39;;;;;;;8.23;2.70;;;21.50;1.00;;;;;;6269968;22;20349;-67
2023/09/29 07:35:07;;;;;;;9.00;3.17;;;21.40;1.00;;;;;;6270538;22;20403;-67
2023/09/29 07:37:33;;;;;;;7.68;2.67;;;21.40;1.00;;;;;;6270845;22;20360;-67
2023/09/29 07:39:58;;;;;;;8.32;3.03;;;21.30;1.00;;;;;;6271451;22;20440;-67
2023/09/29 07:42:24;;;;;;;8.80;2.60;;;21.30;1.00;;;;;;6271291;22;20697;-67
2023/09/29 07:44:49;;;;;;;7.23;2.60;;;21.30;1.00;;;;;;6271130;22;20360;-67
2023/09/29 07:47:15;;;;;;;10.60;2.70;;;21.40;1.00;;;;;;6271702;22;20784;-67
2023/09/29 07:49:41;;;;;;;16.17;2.97;;;21.60;1.00;;;;;;6271714;22;20387;-67
2023/09/29 07:52:08;;;;;;;7.77;2.90;;;22.00;1.00;;;;;;6271352;22;20816;-67
2023/09/29 07:54:36;;;;;;;7.80;2.50;;;22.60;1.00;;;;;;6271861;22;20696;-67
2023/09/29 07:57:03;;;;;;;10.20;2.60;;;23.70;1.00;;;;;;6271588;22;20364;-68
2023/09/29 07:59:28;;;;;;;7.78;2.90;;;24.30;1.00;;;;;;6271199;22;20816;-68
2023/09/29 08:01:54;;;;;;;9.40;3.28;;;24.60;99.90;;;;;;6270807;22;21159;-68
2023/09/29 08:04:21;;;;;;;8.20;2.83;;;25.00;99.90;;;;;;6271525;22;20362;-68
2023/09/29 08:06:46;;;;;;;8.40;3.05;;;26.30;99.90;;;;;;6271260;22;20356;-68
2023/09/29 08:09:12;;;;;;;8.13;3.08;;;27.50;99.90;;;;;;6272385;22;20709;-68
2023/09/29 08:11:41;;;;;;;7.25;2.55;;;27.80;99.90;;;;;;6270811;22;20843;-68
2023/09/29 08:14:07;;;;;;;8.13;3.58;;;27.10;99.90;;;;;;6271299;22;20368;-68
2023/09/29 08:16:34;;;;;;;8.97;3.03;;;27.00;99.90;;;;;;6271555;22;20476;-68
2023/09/29 08:18:59;;;;;;;8.20;2.90;;;27.30;99.90;;;;;;6271888;22;20360;-67
2023/09/29 08:21:25;;;;;;;10.30;3.20;;;28.00;99.90;;;;;;6271832;22;20685;-67
2023/09/29 08:23:51;;;;;;;9.47;2.83;;;27.90;99.90;;;;;;6271818;22;20399;-68
2023/09/29 08:26:16;;;;;;;12.00;2.70;;;27.00;99.90;;;;;;6271494;22;20344;-68
2023/09/29 08:28:43;;;;;;;7.30;3.07;;;26.20;99.90;;;;;;6271681;22;20372;-68
2023/09/29 08:31:15;;;;;;;7.50;3.07;;;26.10;99.90;;;;;;6274467;22;20363;-68
2023/09/29 08:33:42;;;;;;;8.77;2.88;;;26.20;99.90;;;;;;6274494;22;20386;-69
2023/09/29 08:36:07;;;;;;;11.10;3.00;;;26.70;99.90;;;;;;6272651;22;20364;-69
2023/09/29 08:38:33;;;;;;;8.63;3.28;;;28.40;91.50;;;;;;6245148;22;20401;-67
2023/09/29 08:41:05;;;;;;;6.83;2.70;;;30.30;1.00;;;;;;6272065;22;20364;-66
2023/09/29 08:43:32;;;;;;;6.53;2.70;;;31.80;99.90;;;;;;6271069;22;20380;-66
2023/09/29 08:45:58;;;;;;;9.35;2.70;;;32.80;99.90;;;;;;6271521;22;20365;-66
2023/09/29 08:48:27;;;;;;;7.63;2.90;;;33.60;99.90;;;;;;6272618;22;20371;-68
2023/09/29 08:50:56;;;;;;;9.73;2.83;;;34.20;99.90;;;;;;6272221;22;20364;-69
2023/09/29 08:53:26;;;;;;;7.20;2.80;;;35.10;99.90;;;;;;6271566;22;20498;-68
2023/09/29 08:55:56;;;;;;;7.60;2.58;;;34.00;99.90;;;;;;6272134;22;20813;-68
2023/09/29 08:58:23;;;;;;;9.13;2.95;;;32.90;99.90;;;;;;6272051;22;20360;-68
2023/09/29 09:00:50;;;;;;;7.33;2.63;;;33.00;99.90;;;;;;6270359;22;20384;-68
2023/09/29 09:03:17;;;;;;;6.95;2.60;;;33.80;99.90;;;;;;6272425;22;20542;-68
2023/09/29 09:05:44;;;;;;;8.18;2.85;;;35.00;99.90;;;;;;6271973;22;20353;-68
2023/09/29 09:08:11;;;;;;;11.32;2.70;;;35.80;99.90;;;;;;6272190;22;20825;-68
2023/09/29 09:10:37;;;;;;;7.82;3.20;;;36.60;99.90;;;;;;6271975;22;20364;-68
2023/09/29 09:13:05;;;;;;;7.72;2.90;;;36.80;99.90;;;;;;6272074;22;20355;-68
2023/09/29 09:15:31;;;;;;;8.13;2.58;;;36.40;99.90;;;;;;6271538;22;20447;-68
2023/09/29 09:17:57;;;;;;;8.52;3.00;;;36.50;99.90;;;;;;6271832;22;20348;-68
2023/09/29 09:20:24;;;;;;;7.15;2.22;;;36.40;99.90;;;;;;6272383;22;20681;-68
2023/09/29 09:23:02;;;;;;;7.15;2.70;;;34.80;99.90;;;;;;6271330;22;20399;-68
2023/09/29 09:25:41;;;;;;;7.78;2.55;;;33.00;1.00;;;;;;6272930;22;20349;-68
2023/09/29 09:28:20;;;;;;;9.27;2.20;;;31.60;99.90;;;;;;6272273;22;20399;-68
2023/09/29 09:30:51;;;;;;;6.47;2.28;;;30.50;99.90;;;;;;6272480;22;20356;-68
2023/09/29 09:33:21;;;;;;;6.70;1.67;;;30.00;99.90;;;;;;6244713;22;20414;-68
2023/09/29 09:35:48;;;;;;;6.90;1.70;;;29.30;99.90;;;;;;6270523;22;20367;-68
2023/09/29 09:38:14;;;;;;;6.90;2.00;;;29.70;99.90;;;;;;6271710;22;20365;-68
2023/09/29 09:40:40;;;;;;;6.30;2.33;;;30.80;99.90;;;;;;6271198;22;20812;-68
2023/09/29 09:43:07;;;;;;;6.60;2.13;;;31.20;99.90;;;;;;6243501;22;20759;-68
2023/09/29 09:45:39;;;;;;;6.63;2.22;;;31.80;99.90;;;;;;6272092;22;20383;-68
2023/09/29 09:48:07;;;;;;;6.13;1.90;;;33.30;99.90;;;;;;6244480;22;20375;-68
2023/09/29 09:50:36;;;;;;;7.25;2.30;;;32.90;99.90;;;;;;6271866;22;20816;-68
2023/09/29 09:53:03;;;;;;;6.38;2.08;;;32.30;99.90;;;;;;6272048;22;20418;-68
2023/09/29 09:55:37;;;;;;;7.07;1.88;;;31.50;99.90;;;;;;6271659;22;20720;-68
2023/09/29 09:58:10;;;;;;;7.60;1.90;;;31.20;99.90;;;;;;6271409;22;20410;-68
2023/09/29 10:00:38;;;;;;;6.80;2.08;;;30.10;99.90;;;;;;6271183;22;20360;-68
2023/09/29 10:03:11;;;;;;;6.63;2.10;;;30.40;99.90;;;;;;6270916;22;20384;-68
2023/09/29 10:05:41;;;;;;;7.38;2.45;;;30.90;99.90;;;;;;6270333;22;20449;-68
2023/09/29 10:08:07;;;;;;;5.93;1.70;;;31.40;99.90;;;;;;6244988;22;20372;-68
2023/09/29 10:10:41;;;;;;;5.80;2.05;;;30.90;99.90;;;;;;6271404;22;20780;-68
2023/09/29 10:13:11;;;;;;;6.20;1.70;;;30.90;99.90;;;;;;6271117;22;20560;-68
2023/09/29 10:15:38;;;;;;;7.18;2.50;;;30.90;99.90;;;;;;6271460;22;20724;-68
2023/09/29 10:18:18;;;;;;;6.32;3.03;;;31.00;99.90;;;;;;6271528;22;20447;-68
2023/09/29 10:20:45;;;;;;;7.20;2.00;;;32.30;99.90;;;;;;6272407;22;20357;-68
2023/09/29 10:23:14;;;;;;;10.80;2.80;;;33.10;99.90;;;;;;6271506;22;20388;-68
2023/09/29 10:25:44;;;;;;;10.30;2.50;;;33.50;99.90;;;;;;6271713;22;20410;-68
2023/09/29 10:28:12;;;;;;;7.50;2.08;;;34.00;99.90;;;;;;6244536;22;20364;-68
2023/09/29 10:30:39;;;;;;;6.72;2.03;;;33.90;99.90;;;;;;6244248;22;20369;-68
2023/09/29 10:33:14;;;;;;;8.20;2.17;;;33.60;99.90;;;;;;6271113;22;20823;-68
2023/09/29 10:35:45;;;;;;;12.45;2.67;;;33.10;99.90;;;;;;6271733;22;20352;-68
2023/09/29 10:38:31;;;;;;;7.60;2.17;;;32.60;99.90;;;;;;6271617;22;20824;-68
2023/09/29 10:40:58;;;;;;;7.30;2.40;;;33.00;99.90;;;;;;6243568;22;20642;-68
2023/09/29 10:43:24;;;;;;;7.20;2.15;;;33.40;99.90;;;;;;6271237;22;20380;-68
2023/09/29 10:45:50;;;;;;;7.20;2.00;;;33.80;99.90;;;;;;6272324;22;20352;-68
2023/09/29 10:48:19;;;;;;;7.00;2.30;;;33.80;99.90;;;;;;6271869;22;20396;-68
2023/09/29 10:50:51;;;;;;;7.68;2.50;;;33.90;99.90;;;;;;6272251;22;20380;-68
2023/09/29 10:53:18;;;;;;;6.15;2.10;;;33.50;99.90;;;;;;6270654;22;20357;-69
2023/09/29 10:55:52;;;;;;;6.50;2.10;;;34.20;99.90;;;;;;6244115;22;20693;-68
2023/09/29 10:58:19;;;;;;;7.45;2.25;;;34.20;99.90;;;;;;6271401;22;20831;-68
2023/09/29 11:00:49;;;;;;;7.38;2.72;;;34.10;99.90;;;;;;6271766;22;20818;-68
2023/09/29 11:03:17;;;;;;;7.55;2.20;;;34.40;99.90;;;;;;6271544;22;20459;-68
2023/09/29 11:05:58;;;;;;;8.60;2.00;;;33.70;99.90;;;;;;6272306;22;20360;-68
2023/09/29 11:08:32;;;;;;;6.80;2.10;;;33.80;99.90;;;;;;6271535;22;20447;-68
2023/09/29 11:11:02;;;;;;;8.10;2.50;;;34.00;99.90;;;;;;6271294;22;20366;-68
2023/09/29 11:13:29;;;;;;;6.18;1.95;;;34.00;99.90;;;;;;6271249;22;20665;-68
2023/09/29 11:15:56;;;;;;;7.40;2.40;;;34.40;99.90;;;;;;6271118;22;20482;-68
2023/09/29 11:18:33;;;;;;;7.40;2.40;;;34.30;99.90;;;;;;6271137;22;20348;-68
2023/09/29 11:21:00;;;;;;;8.90;1.90;;;33.20;99.90;;;;;;6270760;22;20360;-68
2023/09/29 11:23:28;;;;;;;7.18;2.47;;;32.70;99.90;;;;;;6270049;22;20387;-68
2023/09/29 11:25:59;;;;;;;6.00;1.90;;;32.50;99.90;;;;;;6270133;22;20367;-67
2023/09/29 11:28:28;;;;;;;12.00;3.10;;;31.90;99.90;;;;;;6270977;22;20352;-67
2023/09/29 11:30:54;;;;;;;7.82;2.20;;;31.90;99.90;;;;;;6270499;22;20360;-68
2023/09/29 11:33:20;;;;;;;8.38;2.97;;;32.20;99.90;;;;;;6270570;22;20360;-68
2023/09/29 11:35:47;;;;;;;7.20;2.03;;;32.40;99.90;;;;;;6271667;22;20356;-68
2023/09/29 11:38:19;;;;;;;7.38;2.50;;;32.00;99.90;;;;;;6271207;22;20446;-68
2023/09/29 11:40:50;;;;;;;7.10;2.88;;;31.70;99.90;;;;;;6271160;22;20368;-67
2023/09/29 11:43:16;;;;;;;6.97;2.60;;;32.00;99.90;;;;;;6271482;22;20479;-67
2023/09/29 11:45:42;;;;;;;9.10;2.40;;;32.50;99.90;;;;;;6274268;22;20352;-68
2023/09/29 11:48:08;;;;;;;7.60;2.80;;;32.40;99.90;;;;;;6273687;22;20367;-68
2023/09/29 11:50:34;;;;;;;6.60;2.70;;;32.10;99.90;;;;;;6272067;22;20389;-68
2023/09/29 11:53:03;;;;;;;7.85;2.60;;;31.70;99.90;;;;;;6270124;22;20552;-68
2023/09/29 11:55:30;;;;;;;6.20;2.42;;;31.70;99.90;;;;;;6270681;22;20391;-68
2023/09/29 11:57:55;;;;;;;7.53;2.65;;;31.50;99.90;;;;;;6269194;22;20438;-67
2023/09/29 12:00:21;;;;;;;8.63;2.60;;;31.10;99.90;;;;;;6270028;22;20386;-67
2023/09/29 12:02:46;;;;;;;9.07;2.22;;;30.70;99.90;;;;;;6269814;22;20435;-67
2023/09/29 12:05:12;;;;;;;7.10;2.60;;;30.90;99.90;;;;;;6271286;22;20356;-67
2023/09/29 12:07:37;;;;;;;7.10;2.40;;;31.10;99.90;;;;;;6269790;22;20368;-67
2023/09/29 12:10:04;;;;;;;6.80;2.07;;;30.90;99.90;;;;;;6269753;22;20364;-67
2023/09/29 12:12:31;;;;;;;7.35;2.80;;;30.50;99.90;;;;;;6269618;22;20360;-67
2023/09/29 12:14:56;;;;;;;7.63;2.33;;;30.40;99.90;;;;;;6270337;22;20356;-69
2023/09/29 12:17:22;;;;;;;9.30;2.58;;;30.10;99.90;;;;;;6270775;22;20405;-68
2023/09/29 12:19:48;;;;;;;7.20;2.42;;;30.00;99.90;;;;;;6270464;22;20824;-68
2023/09/29 12:22:14;;;;;;;6.75;2.35;;;30.40;99.90;;;;;;6270607;22;20835;-68
2023/09/29 12:24:39;;;;;;;8.00;2.58;;;31.10;99.90;;;;;;6269635;22;20365;-68
2023/09/29 12:27:08;;;;;;;8.40;2.60;;;31.10;99.90;;;;;;6271257;22;20344;-68
2023/09/29 12:29:34;;;;;;;8.35;2.40;;;30.70;99.90;;;;;;6271165;22;20899;-68
2023/09/29 12:32:00;;;;;;;7.00;2.50;;;30.40;99.90;;;;;;6271622;22;20384;-67
2023/09/29 12:34:28;;;;;;;8.50;2.35;;;30.30;99.90;;;;;;6270926;22;20363;-67
2023/09/29 12:36:55;;;;;;;8.20;2.85;;;30.20;99.90;;;;;;6270970;22;20876;-67
2023/09/29 12:39:20;;;;;;;6.70;2.77;;;30.30;99.90;;;;;;6271568;22;20375;-67
2023/09/29 12:41:47;;;;;;;8.87;2.80;;;30.50;99.90;;;;;;6272149;22;20390;-67
2023/09/29 12:44:13;;;;;;;7.25;2.88;;;30.70;99.90;;;;;;6272112;22;20440;-67
2023/09/29 12:46:38;;;;;;;9.00;2.90;;;30.70;99.90;;;;;;6271529;22;20816;-67